Chicago-O'Hare International, IL

1:24 PM CDT on July 03, 2015 (GMT -0500)
Rosemont | | Change Station
CLOSE
Current Station
Personal Weather Station
Location: Rosemont, IL
Elevation: 633 ft
Nearby Weather Stations

Elev 633 ft 41.99 °N, 87.87 °W | Updated 3 minutes ago

Overcast
Overcast
74.3 °F
Feels Like 77 °F
N
2.0
Wind Variable Wind from SW
Gusts 2.0 mph

Today
High -- | Low -- °F
--% Chance of Precip.
Yesterday
High -- | Low -- °F
Precip. -- in
5:20 AM 8:30 PM
Waning Gibbous, 96% visible
Pressure 29.96 in
Visibility 10.0 miles
Clouds Scattered Clouds 4100 ft
Scattered Clouds 19000 ft
Overcast 30000 ft
Heat Index 77 °F
Dew Point 59 °F
Humidity 58%
Rainfall 0.00 in
Snow Depth Not available.
UV 5.2 out of 12
Pollen 3.70 out of 12
Air Quality Not available.
Flu Activity Not available.
METAR KORD 031751Z 10004KT 10SM SCT041 SCT190 OVC300 24/12 A2997 RMK AO2 SLP145 T02390122 10239 20150 56004

More Conditions Fewer Conditions

Pressure 29.96 in
Visibility 10.0 miles
Clouds Scattered Clouds 4100 ft
Scattered Clouds 19000 ft
Overcast 30000 ft
Heat Index 77 °F
Dew Point 59 °F
Humidity 58%
Rainfall 0.00 in
Snow Depth Not available.
UV 5.2 out of 12
Pollen 3.70 out of 12
Air Quality Not available.
Flu Activity Not available.
METAR KORD 031751Z 10004KT 10SM SCT041 SCT190 OVC300 24/12 A2997 RMK AO2 SLP145 T02390122 10239 20150 56004

More Conditions Fewer Conditions

10-Day Weather Forecast

×

Almanac

Astronomy

Jul. 03, 2015 Rise Set
Actual Time
Civil Twilight
Nautical Twilight
Astronomical Twilight
Moon
Length of Visible Light
Length of Day
Tomorrow will be .
, % of the Moon is Illuminated

Today's Extremes

State Highs State Lows

Community

WunderPhotos

Upload Photos

1,834,736 photos uploaded!

WunderBlogs® & News

Nearby

Air Quality

  Air Quality AQ Index Pollutant
Not available.

Snow Depth

Station Depth Elevation

Earthquake Activity

City Distance Mag. Time & Date
Minimum magnitude displayed is 2.5.

Coastal Water Temperatures

Place Temperature

Stations

Nearby Weather Stations

Station Location Temp. Windchill Dew Point Humidity Wind Precip. Elev Updated Type